WMT1041 LRIA-LIRF
Flight info
| Callsign | WMT1041 |
|---|---|
| Flight time | N/A |
| Altitude | 36000 |
| Route | ABOLO DCT GUXVA DCT DIRER DCT VEBAR DCT DIXUM DCT VELUG/N0444F330 DCT ESODU/N0367F190 Z924 MOPUV |
| Aircraft | A321/M-SDE3FGHIRWY/LB1 |
Departure
| Time | 2026-04-30 14:37 |
|---|---|
| Airport | Iaşi International Airport (LRIA) |
Arrival
| Time | N/A |
|---|---|
| Airport | Rome–Fiumicino Leonardo da Vinci International Airport (LIRF) |
| Time | Latitude | Longitude | Altitude | Speed | Heading |
|---|---|---|---|---|---|
| 2026-04-30 13:50 | 47.17492 | 27.62014 | 377 ft | 0 kts | 274° |
| 2026-04-30 13:51 | 47.17491 | 27.62022 | 378 ft | 0 kts | 274° |
| 2026-04-30 13:53 | 47.17492 | 27.62014 | 379 ft | 0 kts | 274° |
| 2026-04-30 13:54 | 47.17491 | 27.62022 | 378 ft | 0 kts | 274° |
| 2026-04-30 14:25 | 47.17493 | 27.62026 | 378 ft | 4 kts | 298° |
| 2026-04-30 14:25 | 47.17493 | 27.62036 | 378 ft | 3 kts | 257° |
| 2026-04-30 14:26 | 47.17524 | 27.62073 | 378 ft | 4 kts | 161° |
| 2026-04-30 14:26 | 47.17537 | 27.62064 | 378 ft | 1 kts | 149° |
| 2026-04-30 14:26 | 47.17539 | 27.62062 | 378 ft | 0 kts | 149° |
| 2026-04-30 14:29 | 47.17532 | 27.62068 | 378 ft | 3 kts | 148° |
| 2026-04-30 14:29 | 47.17456 | 27.62137 | 378 ft | 10 kts | 148° |
| 2026-04-30 14:30 | 47.17277 | 27.62409 | 366 ft | 11 kts | 64° |
| 2026-04-30 14:31 | 47.17296 | 27.62459 | 364 ft | 0 kts | 59° |
| 2026-04-30 14:33 | 47.17324 | 27.62528 | 367 ft | 11 kts | 59° |
| 2026-04-30 14:33 | 47.17359 | 27.62659 | 358 ft | 16 kts | 100° |
| 2026-04-30 14:34 | 47.17266 | 27.62768 | 343 ft | 17 kts | 149° |
| 2026-04-30 14:34 | 47.17190 | 27.62877 | 339 ft | 14 kts | 124° |
| 2026-04-30 14:34 | 47.17134 | 27.62932 | 338 ft | 9 kts | 199° |
| 2026-04-30 14:34 | 47.17135 | 27.62889 | 338 ft | 4 kts | 312° |
| 2026-04-30 14:35 | 47.17159 | 27.62865 | 338 ft | 0 kts | 329° |
| 2026-04-30 14:36 | 47.17190 | 27.62837 | 339 ft | 24 kts | 329° |
| 2026-04-30 14:36 | 47.17558 | 27.62512 | 364 ft | 97 kts | 329° |
| 2026-04-30 14:36 | 47.18308 | 27.61852 | 428 ft | 148 kts | 330° |
| 2026-04-30 14:37 | 47.19194 | 27.61083 | 1137 ft | 148 kts | 333° |
| 2026-04-30 14:37 | 47.20119 | 27.60390 | 1781 ft | 154 kts | 335° |
| 2026-04-30 14:37 | 47.21139 | 27.59628 | 2020 ft | 179 kts | 335° |
| 2026-04-30 14:37 | 47.22310 | 27.58753 | 2323 ft | 201 kts | 335° |
| 2026-04-30 14:38 | 47.23646 | 27.57762 | 2686 ft | 223 kts | 333° |
| 2026-04-30 14:38 | 47.24832 | 27.56289 | 3443 ft | 231 kts | 303° |
| 2026-04-30 14:38 | 47.25241 | 27.53978 | 4187 ft | 242 kts | 269° |
| 2026-04-30 14:38 | 47.24706 | 27.51612 | 5003 ft | 252 kts | 236° |
| 2026-04-30 14:39 | 47.23330 | 27.49995 | 5778 ft | 260 kts | 201° |
| 2026-04-30 14:39 | 47.21557 | 27.49657 | 6677 ft | 259 kts | 175° |
| 2026-04-30 14:39 | 47.19768 | 27.50135 | 7448 ft | 263 kts | 165° |
| 2026-04-30 14:40 | 47.16068 | 27.50787 | 8676 ft | 284 kts | 198° |
| 2026-04-30 14:40 | 47.14336 | 27.49411 | 9408 ft | 286 kts | 226° |
| 2026-04-30 14:40 | 47.13201 | 27.47059 | 10218 ft | 283 kts | 246° |
| 2026-04-30 14:40 | 47.12354 | 27.44385 | 10697 ft | 299 kts | 248° |
| 2026-04-30 14:41 | 47.11468 | 27.41538 | 10935 ft | 320 kts | 247° |
| 2026-04-30 14:41 | 47.10527 | 27.38515 | 11471 ft | 329 kts | 247° |
| 2026-04-30 14:41 | 47.09568 | 27.35436 | 12189 ft | 333 kts | 247° |
| 2026-04-30 14:41 | 47.08594 | 27.32330 | 12919 ft | 337 kts | 248° |
| 2026-04-30 14:42 | 47.07602 | 27.29186 | 13626 ft | 341 kts | 247° |
| 2026-04-30 14:42 | 47.06592 | 27.26009 | 14261 ft | 347 kts | 247° |
| 2026-04-30 14:42 | 47.05564 | 27.22782 | 14887 ft | 350 kts | 246° |
| 2026-04-30 14:42 | 47.04527 | 27.19532 | 15548 ft | 353 kts | 247° |
| 2026-04-30 14:43 | 47.03482 | 27.16259 | 16219 ft | 356 kts | 247° |
| 2026-04-30 14:43 | 47.02431 | 27.12958 | 16897 ft | 359 kts | 247° |
| 2026-04-30 14:43 | 47.01370 | 27.09626 | 17573 ft | 362 kts | 247° |
| 2026-04-30 14:43 | 47.00300 | 27.06268 | 18238 ft | 365 kts | 247° |
| 2026-04-30 14:44 | 46.99232 | 27.02925 | 18844 ft | 368 kts | 247° |
| 2026-04-30 14:44 | 46.98140 | 26.99518 | 19440 ft | 371 kts | 247° |
| 2026-04-30 14:44 | 46.97040 | 26.96090 | 20042 ft | 373 kts | 246° |
| 2026-04-30 14:44 | 46.95934 | 26.92642 | 20645 ft | 375 kts | 246° |
| 2026-04-30 14:45 | 46.94820 | 26.89182 | 21252 ft | 377 kts | 246° |
| 2026-04-30 14:45 | 46.93702 | 26.85708 | 21902 ft | 377 kts | 246° |
| 2026-04-30 14:45 | 46.92582 | 26.82234 | 22582 ft | 378 kts | 246° |
| 2026-04-30 14:45 | 46.91458 | 26.78752 | 23203 ft | 379 kts | 246° |
| 2026-04-30 14:46 | 46.90326 | 26.75259 | 23805 ft | 381 kts | 246° |
| 2026-04-30 14:46 | 46.89188 | 26.71748 | 24276 ft | 383 kts | 246° |
| 2026-04-30 14:46 | 46.88044 | 26.68221 | 24728 ft | 385 kts | 246° |
| 2026-04-30 14:46 | 46.86894 | 26.64670 | 25167 ft | 388 kts | 246° |
| 2026-04-30 14:47 | 46.85733 | 26.61094 | 25499 ft | 393 kts | 246° |
| 2026-04-30 14:47 | 46.84547 | 26.57442 | 25719 ft | 401 kts | 246° |
| 2026-04-30 14:47 | 46.83346 | 26.53744 | 26073 ft | 405 kts | 246° |
| 2026-04-30 14:47 | 46.82133 | 26.50018 | 26475 ft | 408 kts | 246° |
| 2026-04-30 14:48 | 46.80909 | 26.46274 | 26890 ft | 409 kts | 246° |
| 2026-04-30 14:48 | 46.79675 | 26.42514 | 27321 ft | 411 kts | 246° |
| 2026-04-30 14:48 | 46.78438 | 26.38750 | 27740 ft | 413 kts | 245° |
| 2026-04-30 14:48 | 46.77195 | 26.34964 | 28102 ft | 416 kts | 246° |
| 2026-04-30 14:49 | 46.75940 | 26.31145 | 28495 ft | 418 kts | 246° |
| 2026-04-30 14:49 | 46.74683 | 26.27320 | 28894 ft | 420 kts | 246° |
| 2026-04-30 14:49 | 46.73432 | 26.23527 | 29262 ft | 422 kts | 246° |
| 2026-04-30 14:49 | 46.72155 | 26.19659 | 29622 ft | 425 kts | 245° |
| 2026-04-30 14:50 | 46.69578 | 26.11872 | 30329 ft | 428 kts | 245° |
| 2026-04-30 14:50 | 46.68279 | 26.07950 | 30598 ft | 430 kts | 245° |
| 2026-04-30 14:51 | 46.65659 | 26.00076 | 31179 ft | 434 kts | 245° |
| 2026-04-30 14:51 | 46.64336 | 25.96117 | 31453 ft | 436 kts | 245° |
| 2026-04-30 14:51 | 46.61652 | 25.88093 | 31813 ft | 444 kts | 245° |
| 2026-04-30 14:52 | 46.60298 | 25.84042 | 32150 ft | 445 kts | 246° |
| 2026-04-30 14:52 | 46.57594 | 25.75971 | 32897 ft | 444 kts | 246° |
| 2026-04-30 14:52 | 46.56237 | 25.71943 | 33286 ft | 443 kts | 245° |
| 2026-04-30 14:53 | 46.53536 | 25.63939 | 34078 ft | 439 kts | 246° |
| 2026-04-30 14:53 | 46.52195 | 25.59957 | 34428 ft | 438 kts | 246° |
| 2026-04-30 14:54 | 46.49511 | 25.52023 | 35001 ft | 437 kts | 246° |
| 2026-04-30 14:54 | 46.46824 | 25.44105 | 35559 ft | 437 kts | 246° |
| 2026-04-30 14:55 | 46.44128 | 25.36201 | 36090 ft | 437 kts | 245° |
| 2026-04-30 14:55 | 46.42779 | 25.32254 | 36239 ft | 437 kts | 245° |
| 2026-04-30 14:56 | 46.37490 | 25.16795 | 36273 ft | 402 kts | 246° |